sensor_id;sensor_type;location;lat;lon;timestamp;P1;durP1;ratioP1;P2;durP2;ratioP2
3922;SDS011;1976;51.694;6.256;2023-02-28T00:00:24;9.80;;;6.03;;
3922;SDS011;1976;51.694;6.256;2023-02-28T00:02:51;9.70;;;5.80;;
3922;SDS011;1976;51.694;6.256;2023-02-28T00:05:17;11.30;;;5.00;;
3922;SDS011;1976;51.694;6.256;2023-02-28T00:07:45;7.67;;;5.60;;
3922;SDS011;1976;51.694;6.256;2023-02-28T00:10:12;7.90;;;5.83;;
3922;SDS011;1976;51.694;6.256;2023-02-28T00:12:39;13.90;;;5.10;;
3922;SDS011;1976;51.694;6.256;2023-02-28T00:15:06;12.20;;;5.43;;
3922;SDS011;1976;51.694;6.256;2023-02-28T00:17:33;10.10;;;5.13;;
3922;SDS011;1976;51.694;6.256;2023-02-28T00:19:59;6.43;;;5.10;;
3922;SDS011;1976;51.694;6.256;2023-02-28T00:22:37;8.20;;;5.10;;
3922;SDS011;1976;51.694;6.256;2023-02-28T00:25:05;8.90;;;5.70;;
3922;SDS011;1976;51.694;6.256;2023-02-28T00:27:32;8.10;;;5.60;;
3922;SDS011;1976;51.694;6.256;2023-02-28T00:30:01;8.27;;;5.63;;
3922;SDS011;1976;51.694;6.256;2023-02-28T00:32:27;6.67;;;5.50;;
3922;SDS011;1976;51.694;6.256;2023-02-28T00:34:53;11.30;;;6.57;;
3922;SDS011;1976;51.694;6.256;2023-02-28T00:37:19;8.83;;;5.90;;
3922;SDS011;1976;51.694;6.256;2023-02-28T00:39:44;7.40;;;5.53;;
3922;SDS011;1976;51.694;6.256;2023-02-28T00:42:10;7.90;;;5.40;;
3922;SDS011;1976;51.694;6.256;2023-02-28T00:44:36;12.97;;;6.50;;
3922;SDS011;1976;51.694;6.256;2023-02-28T00:47:01;16.23;;;5.53;;
3922;SDS011;1976;51.694;6.256;2023-02-28T00:49:27;8.20;;;5.10;;
3922;SDS011;1976;51.694;6.256;2023-02-28T00:51:53;9.80;;;6.60;;
3922;SDS011;1976;51.694;6.256;2023-02-28T00:54:20;5.43;;;4.80;;
3922;SDS011;1976;51.694;6.256;2023-02-28T00:56:47;6.63;;;4.93;;
3922;SDS011;1976;51.694;6.256;2023-02-28T00:59:13;8.00;;;5.33;;
3922;SDS011;1976;51.694;6.256;2023-02-28T01:01:41;5.63;;;5.03;;
3922;SDS011;1976;51.694;6.256;2023-02-28T01:04:07;8.73;;;5.73;;
3922;SDS011;1976;51.694;6.256;2023-02-28T01:06:33;7.67;;;5.90;;
3922;SDS011;1976;51.694;6.256;2023-02-28T01:08:59;15.43;;;5.40;;
3922;SDS011;1976;51.694;6.256;2023-02-28T01:11:25;10.20;;;5.87;;
3922;SDS011;1976;51.694;6.256;2023-02-28T01:13:51;8.00;;;6.27;;
3922;SDS011;1976;51.694;6.256;2023-02-28T01:16:16;9.50;;;5.43;;
3922;SDS011;1976;51.694;6.256;2023-02-28T01:18:42;6.43;;;5.20;;
3922;SDS011;1976;51.694;6.256;2023-02-28T01:21:12;9.70;;;6.33;;
3922;SDS011;1976;51.694;6.256;2023-02-28T01:23:40;14.67;;;7.03;;
3922;SDS011;1976;51.694;6.256;2023-02-28T01:26:10;10.20;;;6.00;;
3922;SDS011;1976;51.694;6.256;2023-02-28T01:28:41;6.67;;;5.30;;
3922;SDS011;1976;51.694;6.256;2023-02-28T01:31:07;7.50;;;5.27;;
3922;SDS011;1976;51.694;6.256;2023-02-28T01:33:34;7.50;;;4.87;;
3922;SDS011;1976;51.694;6.256;2023-02-28T01:36:00;7.73;;;5.90;;
3922;SDS011;1976;51.694;6.256;2023-02-28T01:38:27;8.83;;;5.50;;
3922;SDS011;1976;51.694;6.256;2023-02-28T01:40:53;13.60;;;6.20;;
3922;SDS011;1976;51.694;6.256;2023-02-28T01:43:21;6.27;;;4.90;;
3922;SDS011;1976;51.694;6.256;2023-02-28T01:45:53;15.53;;;5.80;;
3922;SDS011;1976;51.694;6.256;2023-02-28T01:48:21;13.83;;;5.30;;
3922;SDS011;1976;51.694;6.256;2023-02-28T01:50:52;9.13;;;5.17;;
3922;SDS011;1976;51.694;6.256;2023-02-28T01:53:22;18.37;;;5.60;;
3922;SDS011;1976;51.694;6.256;2023-02-28T01:55:52;6.73;;;4.97;;
3922;SDS011;1976;51.694;6.256;2023-02-28T01:58:19;6.97;;;4.47;;
3922;SDS011;1976;51.694;6.256;2023-02-28T02:00:45;7.17;;;5.47;;
3922;SDS011;1976;51.694;6.256;2023-02-28T02:03:14;9.20;;;4.80;;
3922;SDS011;1976;51.694;6.256;2023-02-28T02:05:46;5.50;;;4.87;;
3922;SDS011;1976;51.694;6.256;2023-02-28T02:08:23;5.93;;;4.97;;
3922;SDS011;1976;51.694;6.256;2023-02-28T02:10:51;7.87;;;4.50;;
3922;SDS011;1976;51.694;6.256;2023-02-28T02:18:53;5.50;;;4.30;;
3922;SDS011;1976;51.694;6.256;2023-02-28T02:24:33;6.33;;;4.33;;
3922;SDS011;1976;51.694;6.256;2023-02-28T02:30:16;7.77;;;4.53;;
3922;SDS011;1976;51.694;6.256;2023-02-28T02:38:11;6.77;;;4.03;;
3922;SDS011;1976;51.694;6.256;2023-02-28T02:43:45;13.03;;;3.77;;
3922;SDS011;1976;51.694;6.256;2023-02-28T02:48:56;3.73;;;3.40;;
3922;SDS011;1976;51.694;6.256;2023-02-28T02:51:25;3.87;;;3.57;;
3922;SDS011;1976;51.694;6.256;2023-02-28T02:53:58;5.20;;;3.50;;
3922;SDS011;1976;51.694;6.256;2023-02-28T02:56:31;5.10;;;3.70;;
3922;SDS011;1976;51.694;6.256;2023-02-28T02:59:02;3.73;;;3.00;;
3922;SDS011;1976;51.694;6.256;2023-02-28T03:01:31;4.03;;;3.63;;
3922;SDS011;1976;51.694;6.256;2023-02-28T03:04:00;5.90;;;3.33;;
3922;SDS011;1976;51.694;6.256;2023-02-28T03:06:28;3.83;;;3.17;;
3922;SDS011;1976;51.694;6.256;2023-02-28T03:08:53;4.70;;;3.10;;
3922;SDS011;1976;51.694;6.256;2023-02-28T03:11:19;4.00;;;3.00;;
3922;SDS011;1976;51.694;6.256;2023-02-28T03:19:31;6.83;;;3.27;;
3922;SDS011;1976;51.694;6.256;2023-02-28T03:22:19;4.50;;;3.90;;
3922;SDS011;1976;51.694;6.256;2023-02-28T03:30:53;6.77;;;3.57;;
3922;SDS011;1976;51.694;6.256;2023-02-28T03:33:38;6.00;;;3.33;;
3922;SDS011;1976;51.694;6.256;2023-02-28T03:36:10;3.47;;;2.80;;
3922;SDS011;1976;51.694;6.256;2023-02-28T03:38:43;3.60;;;3.23;;
3922;SDS011;1976;51.694;6.256;2023-02-28T03:41:26;9.60;;;3.53;;
3922;SDS011;1976;51.694;6.256;2023-02-28T03:44:02;6.07;;;3.90;;
3922;SDS011;1976;51.694;6.256;2023-02-28T03:46:43;5.33;;;3.53;;
3922;SDS011;1976;51.694;6.256;2023-02-28T03:49:28;4.13;;;3.23;;
3922;SDS011;1976;51.694;6.256;2023-02-28T03:52:00;6.33;;;3.00;;
3922;SDS011;1976;51.694;6.256;2023-02-28T03:54:30;7.63;;;3.30;;
3922;SDS011;1976;51.694;6.256;2023-02-28T03:59:56;5.77;;;3.10;;
3922;SDS011;1976;51.694;6.256;2023-02-28T04:02:31;6.50;;;3.20;;
3922;SDS011;1976;51.694;6.256;2023-02-28T04:04:57;5.27;;;3.40;;
3922;SDS011;1976;51.694;6.256;2023-02-28T04:07:24;5.27;;;3.63;;
3922;SDS011;1976;51.694;6.256;2023-02-28T04:09:53;5.73;;;3.57;;
3922;SDS011;1976;51.694;6.256;2023-02-28T04:12:19;8.40;;;3.47;;
3922;SDS011;1976;51.694;6.256;2023-02-28T04:14:46;7.23;;;3.50;;
3922;SDS011;1976;51.694;6.256;2023-02-28T04:17:11;5.80;;;3.83;;
3922;SDS011;1976;51.694;6.256;2023-02-28T04:19:37;4.00;;;3.40;;
3922;SDS011;1976;51.694;6.256;2023-02-28T04:22:02;4.27;;;2.77;;
3922;SDS011;1976;51.694;6.256;2023-02-28T04:24:28;4.97;;;3.80;;
3922;SDS011;1976;51.694;6.256;2023-02-28T04:26:55;4.80;;;3.33;;
3922;SDS011;1976;51.694;6.256;2023-02-28T04:29:26;6.47;;;2.97;;
3922;SDS011;1976;51.694;6.256;2023-02-28T04:31:54;5.97;;;3.53;;
3922;SDS011;1976;51.694;6.256;2023-02-28T04:34:22;5.43;;;4.03;;
3922;SDS011;1976;51.694;6.256;2023-02-28T04:36:49;6.00;;;3.23;;
3922;SDS011;1976;51.694;6.256;2023-02-28T04:39:18;3.73;;;3.37;;
3922;SDS011;1976;51.694;6.256;2023-02-28T04:41:45;4.60;;;3.60;;
3922;SDS011;1976;51.694;6.256;2023-02-28T04:44:10;8.57;;;3.70;;
3922;SDS011;1976;51.694;6.256;2023-02-28T04:46:36;8.57;;;3.10;;
3922;SDS011;1976;51.694;6.256;2023-02-28T04:49:02;6.33;;;3.27;;
3922;SDS011;1976;51.694;6.256;2023-02-28T04:51:28;9.63;;;3.50;;
3922;SDS011;1976;51.694;6.256;2023-02-28T04:53:53;4.30;;;3.27;;
3922;SDS011;1976;51.694;6.256;2023-02-28T04:56:19;8.20;;;3.93;;
3922;SDS011;1976;51.694;6.256;2023-02-28T04:58:45;8.90;;;3.13;;
3922;SDS011;1976;51.694;6.256;2023-02-28T05:01:22;3.90;;;2.90;;
3922;SDS011;1976;51.694;6.256;2023-02-28T05:03:53;8.20;;;3.40;;
3922;SDS011;1976;51.694;6.256;2023-02-28T05:06:20;4.23;;;2.60;;
3922;SDS011;1976;51.694;6.256;2023-02-28T05:08:48;2.60;;;2.40;;
3922;SDS011;1976;51.694;6.256;2023-02-28T05:11:17;5.00;;;3.70;;
3922;SDS011;1976;51.694;6.256;2023-02-28T05:13:45;5.43;;;3.60;;
3922;SDS011;1976;51.694;6.256;2023-02-28T05:16:12;7.07;;;3.40;;
3922;SDS011;1976;51.694;6.256;2023-02-28T05:18:37;3.53;;;3.07;;
3922;SDS011;1976;51.694;6.256;2023-02-28T05:21:04;6.00;;;2.80;;
3922;SDS011;1976;51.694;6.256;2023-02-28T05:23:30;5.23;;;3.27;;
3922;SDS011;1976;51.694;6.256;2023-02-28T05:25:56;4.17;;;3.63;;
3922;SDS011;1976;51.694;6.256;2023-02-28T05:28:21;5.37;;;3.33;;
3922;SDS011;1976;51.694;6.256;2023-02-28T05:30:47;6.50;;;3.70;;
3922;SDS011;1976;51.694;6.256;2023-02-28T05:33:13;3.90;;;2.97;;
3922;SDS011;1976;51.694;6.256;2023-02-28T05:35:39;4.97;;;3.13;;
3922;SDS011;1976;51.694;6.256;2023-02-28T05:38:05;5.00;;;3.23;;
3922;SDS011;1976;51.694;6.256;2023-02-28T05:40:31;4.13;;;3.73;;
3922;SDS011;1976;51.694;6.256;2023-02-28T05:42:57;5.60;;;3.40;;
3922;SDS011;1976;51.694;6.256;2023-02-28T05:45:23;6.30;;;3.47;;
3922;SDS011;1976;51.694;6.256;2023-02-28T05:47:48;4.90;;;3.70;;
3922;SDS011;1976;51.694;6.256;2023-02-28T05:50:17;3.87;;;3.43;;
3922;SDS011;1976;51.694;6.256;2023-02-28T05:52:43;4.47;;;4.07;;
3922;SDS011;1976;51.694;6.256;2023-02-28T05:55:09;4.60;;;3.83;;
3922;SDS011;1976;51.694;6.256;2023-02-28T05:57:34;6.57;;;3.83;;
3922;SDS011;1976;51.694;6.256;2023-02-28T06:00:00;4.20;;;3.20;;
3922;SDS011;1976;51.694;6.256;2023-02-28T06:02:26;4.20;;;3.53;;
3922;SDS011;1976;51.694;6.256;2023-02-28T06:04:51;6.23;;;3.77;;
3922;SDS011;1976;51.694;6.256;2023-02-28T06:07:17;4.63;;;3.93;;
3922;SDS011;1976;51.694;6.256;2023-02-28T06:09:42;5.10;;;3.10;;
3922;SDS011;1976;51.694;6.256;2023-02-28T06:12:09;3.90;;;3.17;;
3922;SDS011;1976;51.694;6.256;2023-02-28T06:14:35;4.70;;;3.10;;
3922;SDS011;1976;51.694;6.256;2023-02-28T06:17:01;4.00;;;3.43;;
3922;SDS011;1976;51.694;6.256;2023-02-28T06:19:27;4.23;;;3.60;;
3922;SDS011;1976;51.694;6.256;2023-02-28T06:21:55;4.27;;;3.17;;
3922;SDS011;1976;51.694;6.256;2023-02-28T06:24:22;4.30;;;2.90;;
3922;SDS011;1976;51.694;6.256;2023-02-28T06:26:49;5.03;;;3.10;;
3922;SDS011;1976;51.694;6.256;2023-02-28T06:29:15;3.73;;;3.40;;
3922;SDS011;1976;51.694;6.256;2023-02-28T06:31:44;8.93;;;3.23;;
3922;SDS011;1976;51.694;6.256;2023-02-28T06:34:11;4.33;;;3.43;;
3922;SDS011;1976;51.694;6.256;2023-02-28T06:36:38;4.60;;;3.30;;
3922;SDS011;1976;51.694;6.256;2023-02-28T06:39:04;3.80;;;2.80;;
3922;SDS011;1976;51.694;6.256;2023-02-28T06:41:30;4.40;;;3.00;;
3922;SDS011;1976;51.694;6.256;2023-02-28T06:43:56;5.97;;;3.17;;
3922;SDS011;1976;51.694;6.256;2023-02-28T06:46:22;3.43;;;3.13;;
3922;SDS011;1976;51.694;6.256;2023-02-28T06:48:47;2.87;;;2.27;;
3922;SDS011;1976;51.694;6.256;2023-02-28T06:51:17;3.43;;;2.80;;
3922;SDS011;1976;51.694;6.256;2023-02-28T06:53:47;3.33;;;2.97;;
3922;SDS011;1976;51.694;6.256;2023-02-28T06:56:14;5.40;;;3.13;;
3922;SDS011;1976;51.694;6.256;2023-02-28T06:58:40;7.13;;;3.10;;
3922;SDS011;1976;51.694;6.256;2023-02-28T07:01:07;7.00;;;3.07;;
3922;SDS011;1976;51.694;6.256;2023-02-28T07:03:34;4.50;;;2.93;;
3922;SDS011;1976;51.694;6.256;2023-02-28T07:06:00;5.07;;;2.97;;
3922;SDS011;1976;51.694;6.256;2023-02-28T07:08:27;4.50;;;3.20;;
3922;SDS011;1976;51.694;6.256;2023-02-28T07:10:53;21.10;;;3.90;;
3922;SDS011;1976;51.694;6.256;2023-02-28T07:13:20;5.03;;;3.10;;
3922;SDS011;1976;51.694;6.256;2023-02-28T07:16:09;5.60;;;3.20;;
3922;SDS011;1976;51.694;6.256;2023-02-28T07:18:34;2.87;;;2.67;;
3922;SDS011;1976;51.694;6.256;2023-02-28T07:21:04;2.93;;;2.50;;
3922;SDS011;1976;51.694;6.256;2023-02-28T07:23:32;8.10;;;3.70;;
3922;SDS011;1976;51.694;6.256;2023-02-28T07:25:58;5.10;;;3.57;;
3922;SDS011;1976;51.694;6.256;2023-02-28T07:28:23;3.27;;;2.83;;
3922;SDS011;1976;51.694;6.256;2023-02-28T07:30:49;3.33;;;2.40;;
3922;SDS011;1976;51.694;6.256;2023-02-28T07:33:15;3.53;;;2.87;;
3922;SDS011;1976;51.694;6.256;2023-02-28T07:35:41;2.90;;;2.70;;
3922;SDS011;1976;51.694;6.256;2023-02-28T07:38:07;5.80;;;2.80;;
3922;SDS011;1976;51.694;6.256;2023-02-28T07:40:34;7.13;;;3.27;;
3922;SDS011;1976;51.694;6.256;2023-02-28T07:43:00;4.77;;;3.20;;
3922;SDS011;1976;51.694;6.256;2023-02-28T07:45:28;3.97;;;3.57;;
3922;SDS011;1976;51.694;6.256;2023-02-28T07:47:54;9.70;;;3.10;;
3922;SDS011;1976;51.694;6.256;2023-02-28T07:50:21;6.50;;;2.83;;
3922;SDS011;1976;51.694;6.256;2023-02-28T07:52:47;3.73;;;3.30;;
3922;SDS011;1976;51.694;6.256;2023-02-28T07:55:12;5.60;;;3.10;;
3922;SDS011;1976;51.694;6.256;2023-02-28T07:57:38;4.03;;;3.63;;
3922;SDS011;1976;51.694;6.256;2023-02-28T08:00:05;4.33;;;3.00;;
3922;SDS011;1976;51.694;6.256;2023-02-28T08:02:34;3.23;;;2.93;;
3922;SDS011;1976;51.694;6.256;2023-02-28T08:05:00;10.10;;;3.30;;
3922;SDS011;1976;51.694;6.256;2023-02-28T08:07:26;4.67;;;2.83;;
3922;SDS011;1976;51.694;6.256;2023-02-28T08:09:51;4.80;;;3.50;;
3922;SDS011;1976;51.694;6.256;2023-02-28T08:12:17;3.87;;;3.07;;
3922;SDS011;1976;51.694;6.256;2023-02-28T08:14:43;4.23;;;2.53;;
3922;SDS011;1976;51.694;6.256;2023-02-28T08:17:09;2.50;;;2.30;;
3922;SDS011;1976;51.694;6.256;2023-02-28T08:19:36;3.47;;;2.63;;
3922;SDS011;1976;51.694;6.256;2023-02-28T08:22:01;2.43;;;2.27;;
3922;SDS011;1976;51.694;6.256;2023-02-28T08:24:27;4.10;;;2.90;;
3922;SDS011;1976;51.694;6.256;2023-02-28T08:26:54;2.80;;;2.47;;
3922;SDS011;1976;51.694;6.256;2023-02-28T08:29:20;2.90;;;2.70;;
3922;SDS011;1976;51.694;6.256;2023-02-28T08:31:46;7.10;;;2.80;;
3922;SDS011;1976;51.694;6.256;2023-02-28T08:34:13;5.30;;;2.50;;
3922;SDS011;1976;51.694;6.256;2023-02-28T08:36:41;3.53;;;2.80;;
3922;SDS011;1976;51.694;6.256;2023-02-28T08:39:09;2.63;;;2.33;;
3922;SDS011;1976;51.694;6.256;2023-02-28T08:41:35;5.43;;;2.47;;
3922;SDS011;1976;51.694;6.256;2023-02-28T08:44:01;3.20;;;2.50;;
3922;SDS011;1976;51.694;6.256;2023-02-28T08:46:27;2.73;;;2.20;;
3922;SDS011;1976;51.694;6.256;2023-02-28T08:48:53;4.17;;;2.77;;
3922;SDS011;1976;51.694;6.256;2023-02-28T08:51:19;3.43;;;2.60;;
3922;SDS011;1976;51.694;6.256;2023-02-28T08:53:53;2.80;;;2.50;;
3922;SDS011;1976;51.694;6.256;2023-02-28T08:56:20;4.27;;;2.70;;
3922;SDS011;1976;51.694;6.256;2023-02-28T08:58:46;6.53;;;2.30;;
3922;SDS011;1976;51.694;6.256;2023-02-28T09:01:14;2.97;;;2.67;;
3922;SDS011;1976;51.694;6.256;2023-02-28T09:03:44;4.13;;;2.43;;
3922;SDS011;1976;51.694;6.256;2023-02-28T09:06:11;3.77;;;2.70;;
3922;SDS011;1976;51.694;6.256;2023-02-28T09:08:38;6.87;;;3.13;;
3922;SDS011;1976;51.694;6.256;2023-02-28T09:11:04;4.07;;;2.30;;
3922;SDS011;1976;51.694;6.256;2023-02-28T09:13:30;4.60;;;2.23;;
3922;SDS011;1976;51.694;6.256;2023-02-28T09:15:57;2.53;;;2.20;;
3922;SDS011;1976;51.694;6.256;2023-02-28T09:18:24;3.57;;;2.33;;
3922;SDS011;1976;51.694;6.256;2023-02-28T09:20:51;4.07;;;2.30;;
3922;SDS011;1976;51.694;6.256;2023-02-28T09:23:17;2.13;;;1.93;;
3922;SDS011;1976;51.694;6.256;2023-02-28T09:25:53;1.73;;;1.63;;
3922;SDS011;1976;51.694;6.256;2023-02-28T09:28:20;3.47;;;2.63;;
3922;SDS011;1976;51.694;6.256;2023-02-28T09:30:50;3.63;;;1.87;;
3922;SDS011;1976;51.694;6.256;2023-02-28T09:33:19;4.70;;;2.10;;
3922;SDS011;1976;51.694;6.256;2023-02-28T09:35:48;4.03;;;3.10;;
3922;SDS011;1976;51.694;6.256;2023-02-28T09:38:14;1.73;;;1.63;;
3922;SDS011;1976;51.694;6.256;2023-02-28T09:40:47;2.90;;;1.73;;
3922;SDS011;1976;51.694;6.256;2023-02-28T09:43:16;2.33;;;1.60;;
3922;SDS011;1976;51.694;6.256;2023-02-28T09:45:48;4.20;;;2.30;;
3922;SDS011;1976;51.694;6.256;2023-02-28T09:48:27;2.37;;;1.70;;
3922;SDS011;1976;51.694;6.256;2023-02-28T09:53:58;1.70;;;1.60;;
3922;SDS011;1976;51.694;6.256;2023-02-28T09:56:25;1.30;;;1.20;;
3922;SDS011;1976;51.694;6.256;2023-02-28T09:59:01;3.60;;;1.30;;
3922;SDS011;1976;51.694;6.256;2023-02-28T10:10:18;2.30;;;1.80;;
3922;SDS011;1976;51.694;6.256;2023-02-28T10:12:49;2.73;;;1.70;;
3922;SDS011;1976;51.694;6.256;2023-02-28T10:15:18;1.57;;;1.47;;
3922;SDS011;1976;51.694;6.256;2023-02-28T10:17:48;1.33;;;1.23;;
3922;SDS011;1976;51.694;6.256;2023-02-28T10:20:22;9.77;;;2.17;;
3922;SDS011;1976;51.694;6.256;2023-02-28T10:25:47;3.33;;;1.70;;
3922;SDS011;1976;51.694;6.256;2023-02-28T10:28:19;1.90;;;1.50;;
3922;SDS011;1976;51.694;6.256;2023-02-28T10:30:48;1.90;;;1.70;;
3922;SDS011;1976;51.694;6.256;2023-02-28T10:33:20;1.57;;;1.47;;
3922;SDS011;1976;51.694;6.256;2023-02-28T10:35:48;2.30;;;1.67;;
3922;SDS011;1976;51.694;6.256;2023-02-28T10:38:16;2.77;;;1.83;;
3922;SDS011;1976;51.694;6.256;2023-02-28T10:40:44;1.77;;;1.60;;
3922;SDS011;1976;51.694;6.256;2023-02-28T10:45:39;1.80;;;1.50;;
3922;SDS011;1976;51.694;6.256;2023-02-28T10:48:26;1.83;;;1.73;;
3922;SDS011;1976;51.694;6.256;2023-02-28T10:50:59;7.70;;;1.37;;
3922;SDS011;1976;51.694;6.256;2023-02-28T10:53:39;1.70;;;1.60;;
3922;SDS011;1976;51.694;6.256;2023-02-28T10:56:21;2.13;;;1.70;;
3922;SDS011;1976;51.694;6.256;2023-02-28T11:01:17;2.43;;;1.73;;
3922;SDS011;1976;51.694;6.256;2023-02-28T11:03:45;1.77;;;1.60;;
3922;SDS011;1976;51.694;6.256;2023-02-28T11:06:33;1.30;;;1.20;;
3922;SDS011;1976;51.694;6.256;2023-02-28T11:09:04;1.70;;;1.60;;
3922;SDS011;1976;51.694;6.256;2023-02-28T11:11:44;2.30;;;1.77;;
3922;SDS011;1976;51.694;6.256;2023-02-28T11:14:17;2.00;;;1.57;;
3922;SDS011;1976;51.694;6.256;2023-02-28T11:16:47;3.30;;;1.60;;
3922;SDS011;1976;51.694;6.256;2023-02-28T11:19:22;2.40;;;1.50;;
3922;SDS011;1976;51.694;6.256;2023-02-28T11:21:53;1.93;;;1.70;;
3922;SDS011;1976;51.694;6.256;2023-02-28T11:24:32;3.20;;;1.50;;
3922;SDS011;1976;51.694;6.256;2023-02-28T11:27:10;2.10;;;1.60;;
3922;SDS011;1976;51.694;6.256;2023-02-28T11:29:50;1.20;;;1.10;;
3922;SDS011;1976;51.694;6.256;2023-02-28T11:32:18;1.53;;;1.33;;
3922;SDS011;1976;51.694;6.256;2023-02-28T11:34:46;3.20;;;1.70;;
3922;SDS011;1976;51.694;6.256;2023-02-28T11:37:24;1.50;;;1.40;;
3922;SDS011;1976;51.694;6.256;2023-02-28T11:39:52;1.63;;;1.40;;
3922;SDS011;1976;51.694;6.256;2023-02-28T11:42:31;2.83;;;1.67;;
3922;SDS011;1976;51.694;6.256;2023-02-28T11:50:45;2.37;;;1.50;;
3922;SDS011;1976;51.694;6.256;2023-02-28T11:58:33;1.80;;;1.30;;
3922;SDS011;1976;51.694;6.256;2023-02-28T12:04:28;2.00;;;1.73;;
3922;SDS011;1976;51.694;6.256;2023-02-28T12:13:01;2.50;;;1.60;;
3922;SDS011;1976;51.694;6.256;2023-02-28T12:23:47;2.90;;;2.10;;
3922;SDS011;1976;51.694;6.256;2023-02-28T12:29:01;2.80;;;1.90;;
3922;SDS011;1976;51.694;6.256;2023-02-28T12:31:40;2.57;;;1.90;;
3922;SDS011;1976;51.694;6.256;2023-02-28T12:34:16;3.40;;;2.17;;
3922;SDS011;1976;51.694;6.256;2023-02-28T12:36:46;2.50;;;2.30;;
3922;SDS011;1976;51.694;6.256;2023-02-28T12:39:17;1.63;;;1.53;;
3922;SDS011;1976;51.694;6.256;2023-02-28T12:41:53;1.80;;;1.70;;
3922;SDS011;1976;51.694;6.256;2023-02-28T12:44:34;3.03;;;1.77;;
3922;SDS011;1976;51.694;6.256;2023-02-28T12:47:14;1.77;;;1.67;;
3922;SDS011;1976;51.694;6.256;2023-02-28T12:49:58;1.97;;;1.67;;
3922;SDS011;1976;51.694;6.256;2023-02-28T12:52:47;1.87;;;1.67;;
3922;SDS011;1976;51.694;6.256;2023-02-28T12:55:20;1.67;;;1.57;;
3922;SDS011;1976;51.694;6.256;2023-02-28T12:58:00;2.93;;;1.83;;
3922;SDS011;1976;51.694;6.256;2023-02-28T13:00:42;1.73;;;1.33;;
3922;SDS011;1976;51.694;6.256;2023-02-28T13:03:33;2.90;;;1.80;;
3922;SDS011;1976;51.694;6.256;2023-02-28T13:06:14;1.53;;;1.43;;
3922;SDS011;1976;51.694;6.256;2023-02-28T13:09:10;2.77;;;1.70;;
3922;SDS011;1976;51.694;6.256;2023-02-28T13:11:43;2.00;;;1.50;;
3922;SDS011;1976;51.694;6.256;2023-02-28T13:14:30;1.70;;;1.50;;
3922;SDS011;1976;51.694;6.256;2023-02-28T13:19:32;1.90;;;1.80;;
3922;SDS011;1976;51.694;6.256;2023-02-28T13:22:00;3.03;;;1.80;;
3922;SDS011;1976;51.694;6.256;2023-02-28T13:29:49;2.00;;;1.50;;
3922;SDS011;1976;51.694;6.256;2023-02-28T13:32:19;2.37;;;1.80;;
3922;SDS011;1976;51.694;6.256;2023-02-28T13:39:53;1.63;;;1.53;;
3922;SDS011;1976;51.694;6.256;2023-02-28T13:42:23;4.90;;;2.13;;
3922;SDS011;1976;51.694;6.256;2023-02-28T13:47:30;4.10;;;2.10;;
3922;SDS011;1976;51.694;6.256;2023-02-28T14:06:15;2.17;;;1.77;;
3922;SDS011;1976;51.694;6.256;2023-02-28T14:08:57;3.00;;;2.30;;
3922;SDS011;1976;51.694;6.256;2023-02-28T14:11:33;2.30;;;2.10;;
3922;SDS011;1976;51.694;6.256;2023-02-28T14:14:04;2.00;;;1.90;;
3922;SDS011;1976;51.694;6.256;2023-02-28T14:16:41;2.00;;;1.90;;
3922;SDS011;1976;51.694;6.256;2023-02-28T14:21:36;2.90;;;2.40;;
3922;SDS011;1976;51.694;6.256;2023-02-28T14:26:45;3.70;;;2.10;;
3922;SDS011;1976;51.694;6.256;2023-02-28T14:37:51;2.60;;;1.90;;
3922;SDS011;1976;51.694;6.256;2023-02-28T14:40:37;1.80;;;1.70;;
3922;SDS011;1976;51.694;6.256;2023-02-28T14:43:04;3.73;;;1.80;;
3922;SDS011;1976;51.694;6.256;2023-02-28T14:45:43;3.33;;;2.00;;
3922;SDS011;1976;51.694;6.256;2023-02-28T14:48:15;5.00;;;2.30;;
3922;SDS011;1976;51.694;6.256;2023-02-28T14:50:42;1.90;;;1.70;;
3922;SDS011;1976;51.694;6.256;2023-02-28T14:53:18;3.07;;;2.23;;
3922;SDS011;1976;51.694;6.256;2023-02-28T14:55:47;12.23;;;1.93;;
3922;SDS011;1976;51.694;6.256;2023-02-28T14:58:33;3.83;;;2.20;;
3922;SDS011;1976;51.694;6.256;2023-02-28T15:01:00;2.30;;;2.13;;
3922;SDS011;1976;51.694;6.256;2023-02-28T15:03:34;3.20;;;2.50;;
3922;SDS011;1976;51.694;6.256;2023-02-28T15:06:06;15.40;;;2.97;;
3922;SDS011;1976;51.694;6.256;2023-02-28T15:08:45;3.13;;;2.10;;
3922;SDS011;1976;51.694;6.256;2023-02-28T15:13:44;2.33;;;1.90;;
3922;SDS011;1976;51.694;6.256;2023-02-28T15:18:48;3.60;;;2.47;;
3922;SDS011;1976;51.694;6.256;2023-02-28T15:21:15;6.30;;;2.33;;
3922;SDS011;1976;51.694;6.256;2023-02-28T15:23:57;2.00;;;1.90;;
3922;SDS011;1976;51.694;6.256;2023-02-28T15:26:51;2.53;;;2.33;;
3922;SDS011;1976;51.694;6.256;2023-02-28T15:29:22;2.93;;;1.90;;
3922;SDS011;1976;51.694;6.256;2023-02-28T15:31:55;1.77;;;1.67;;
3922;SDS011;1976;51.694;6.256;2023-02-28T15:34:39;3.90;;;2.20;;
3922;SDS011;1976;51.694;6.256;2023-02-28T15:39:51;1.90;;;1.80;;
3922;SDS011;1976;51.694;6.256;2023-02-28T15:42:19;2.30;;;1.97;;
3922;SDS011;1976;51.694;6.256;2023-02-28T15:44:46;4.53;;;2.10;;
3922;SDS011;1976;51.694;6.256;2023-02-28T15:47:24;6.53;;;2.50;;
3922;SDS011;1976;51.694;6.256;2023-02-28T15:50:01;4.20;;;2.00;;
3922;SDS011;1976;51.694;6.256;2023-02-28T15:52:28;2.63;;;2.43;;
3922;SDS011;1976;51.694;6.256;2023-02-28T15:54:59;2.67;;;2.40;;
3922;SDS011;1976;51.694;6.256;2023-02-28T15:58:00;3.07;;;2.50;;
3922;SDS011;1976;51.694;6.256;2023-02-28T16:00:27;3.57;;;2.50;;
3922;SDS011;1976;51.694;6.256;2023-02-28T16:02:54;4.83;;;2.50;;
3922;SDS011;1976;51.694;6.256;2023-02-28T16:05:27;4.80;;;2.70;;
3922;SDS011;1976;51.694;6.256;2023-02-28T16:08:00;4.13;;;2.80;;
3922;SDS011;1976;51.694;6.256;2023-02-28T16:10:36;4.50;;;2.63;;
3922;SDS011;1976;51.694;6.256;2023-02-28T16:13:02;2.87;;;2.40;;
3922;SDS011;1976;51.694;6.256;2023-02-28T16:15:28;2.80;;;2.30;;
3922;SDS011;1976;51.694;6.256;2023-02-28T16:17:57;2.50;;;2.00;;
3922;SDS011;1976;51.694;6.256;2023-02-28T16:20:27;2.23;;;2.03;;
3922;SDS011;1976;51.694;6.256;2023-02-28T16:22:54;4.50;;;2.60;;
3922;SDS011;1976;51.694;6.256;2023-02-28T16:25:22;2.03;;;1.93;;
3922;SDS011;1976;51.694;6.256;2023-02-28T16:27:52;3.10;;;2.40;;
3922;SDS011;1976;51.694;6.256;2023-02-28T16:30:21;3.50;;;2.77;;
3922;SDS011;1976;51.694;6.256;2023-02-28T16:32:49;4.50;;;2.47;;
3922;SDS011;1976;51.694;6.256;2023-02-28T16:35:16;3.40;;;2.70;;
3922;SDS011;1976;51.694;6.256;2023-02-28T16:37:43;5.43;;;2.67;;
3922;SDS011;1976;51.694;6.256;2023-02-28T16:40:16;5.83;;;2.60;;
3922;SDS011;1976;51.694;6.256;2023-02-28T16:42:45;3.63;;;2.80;;
3922;SDS011;1976;51.694;6.256;2023-02-28T16:45:31;3.67;;;2.70;;
3922;SDS011;1976;51.694;6.256;2023-02-28T16:47:57;4.40;;;2.90;;
3922;SDS011;1976;51.694;6.256;2023-02-28T16:50:23;2.63;;;2.40;;
3922;SDS011;1976;51.694;6.256;2023-02-28T16:52:59;3.90;;;2.37;;
3922;SDS011;1976;51.694;6.256;2023-02-28T16:55:25;4.60;;;3.17;;
3922;SDS011;1976;51.694;6.256;2023-02-28T16:57:53;3.67;;;3.37;;
3922;SDS011;1976;51.694;6.256;2023-02-28T17:00:20;7.37;;;2.80;;
3922;SDS011;1976;51.694;6.256;2023-02-28T17:02:47;3.10;;;2.60;;
3922;SDS011;1976;51.694;6.256;2023-02-28T17:05:12;4.37;;;2.73;;
3922;SDS011;1976;51.694;6.256;2023-02-28T17:07:40;3.00;;;2.50;;
3922;SDS011;1976;51.694;6.256;2023-02-28T17:10:25;8.73;;;3.20;;
3922;SDS011;1976;51.694;6.256;2023-02-28T17:12:51;3.67;;;2.87;;
3922;SDS011;1976;51.694;6.256;2023-02-28T17:15:19;3.17;;;2.80;;
3922;SDS011;1976;51.694;6.256;2023-02-28T17:17:45;3.40;;;3.07;;
3922;SDS011;1976;51.694;6.256;2023-02-28T17:20:13;3.50;;;2.90;;
3922;SDS011;1976;51.694;6.256;2023-02-28T17:22:50;3.57;;;3.20;;
3922;SDS011;1976;51.694;6.256;2023-02-28T17:25:16;3.60;;;3.17;;
3922;SDS011;1976;51.694;6.256;2023-02-28T17:27:42;3.70;;;2.97;;
3922;SDS011;1976;51.694;6.256;2023-02-28T17:32:40;3.77;;;3.43;;
3922;SDS011;1976;51.694;6.256;2023-02-28T17:35:06;5.17;;;4.10;;
3922;SDS011;1976;51.694;6.256;2023-02-28T17:37:32;4.10;;;3.13;;
3922;SDS011;1976;51.694;6.256;2023-02-28T17:39:58;5.90;;;3.47;;
3922;SDS011;1976;51.694;6.256;2023-02-28T17:42:24;7.53;;;3.17;;
3922;SDS011;1976;51.694;6.256;2023-02-28T17:44:49;4.40;;;3.10;;
3922;SDS011;1976;51.694;6.256;2023-02-28T17:47:15;3.50;;;2.90;;
3922;SDS011;1976;51.694;6.256;2023-02-28T17:49:41;4.03;;;3.13;;
3922;SDS011;1976;51.694;6.256;2023-02-28T17:52:06;4.40;;;3.43;;
3922;SDS011;1976;51.694;6.256;2023-02-28T17:54:33;3.10;;;2.80;;